Time;durP1;ratioP1;P1;durP2;ratioP2;P2;SDS_P1;SDS_P2;PMS_P1;PMS_P2;Temp;Humidity;BMP_temperature;BMP_pressure;BME280_temperature;BME280_humidity;BME280_pressure;Samples;Min_cycle;Max_cycle;Signal;HPM_P1;HPM_P2
2023/07/15 00:01:29;;;;;;;3.72;3.15;;;;;;;;;;4974100;28;20050;-63
2023/07/15 00:03:56;;;;;;;4.88;2.90;;;;;;;;;;4975759;28;20035;-63
2023/07/15 00:06:24;;;;;;;3.45;3.10;;;;;;;;;;4977595;28;20041;-62
2023/07/15 00:08:51;;;;;;;4.13;3.17;;;;;;;;;;4976246;28;20053;-62
2023/07/15 00:11:31;;;;;;;5.07;2.88;;;;;;;;;;4976078;28;20042;-61
2023/07/15 00:13:58;;;;;;;3.75;2.90;;;;;;;;;;4974746;28;20050;-61
2023/07/15 00:16:30;;;;;;;4.15;2.80;;;;;;;;;;4976427;28;20042;-61
2023/07/15 00:18:56;;;;;;;3.03;2.50;;;;;;;;;;4973815;28;20430;-62
2023/07/15 00:21:30;;;;;;;3.55;2.53;;;;;;;;;;4974404;28;20047;-61
2023/07/15 00:23:57;;;;;;;3.58;2.60;;;;;;;;;;4972748;28;20486;-60
2023/07/15 00:26:30;;;;;;;3.88;2.85;;;;;;;;;;4975868;28;20074;-60
2023/07/15 00:28:57;;;;;;;2.80;2.50;;;;;;;;;;4975096;28;20038;-61
2023/07/15 00:31:23;;;;;;;4.35;2.65;;;;;;;;;;4974507;28;20399;-61
2023/07/15 00:33:50;;;;;;;3.67;2.50;;;;;;;;;;4972441;28;21020;-61
2023/07/15 00:36:16;;;;;;;3.42;2.97;;;;;;;;;;4974777;28;20395;-60
2023/07/15 00:38:43;;;;;;;4.43;2.50;;;;;;;;;;4976558;28;20037;-61
2023/07/15 00:41:21;;;;;;;2.70;2.30;;;;;;;;;;4958435;28;20047;-60
2023/07/15 00:43:58;;;;;;;4.10;2.92;;;;;;;;;;4975746;28;20390;-61
2023/07/15 00:46:26;;;;;;;3.95;2.78;;;;;;;;;;4975432;28;20035;-61
2023/07/15 00:48:57;;;;;;;5.80;2.67;;;;;;;;;;4989075;28;20041;-62
2023/07/15 00:51:25;;;;;;;4.53;2.97;;;;;;;;;;4972565;28;20053;-60
2023/07/15 00:53:56;;;;;;;3.00;2.40;;;;;;;;;;4978314;28;20045;-60
2023/07/15 00:56:23;;;;;;;3.50;2.22;;;;;;;;;;4974576;28;20174;-61
2023/07/15 00:58:50;;;;;;;2.50;2.30;;;;;;;;;;4975454;28;20061;-62
2023/07/15 01:01:17;;;;;;;5.30;2.70;;;;;;;;;;4974816;28;20046;-61
2023/07/15 01:03:45;;;;;;;3.50;2.28;;;;;;;;;;4976254;28;20043;-61
2023/07/15 01:06:12;;;;;;;3.90;2.60;;;;;;;;;;4982258;28;20031;-61
2023/07/15 01:08:39;;;;;;;2.80;2.20;;;;;;;;;;4980635;28;20054;-61
2023/07/15 01:11:06;;;;;;;3.25;2.15;;;;;;;;;;4979050;28;20405;-61
2023/07/15 01:13:33;;;;;;;3.53;2.22;;;;;;;;;;4977592;28;20050;-62
2023/07/15 01:15:59;;;;;;;4.13;2.30;;;;;;;;;;4975250;28;20050;-61
2023/07/15 01:18:27;;;;;;;2.63;2.28;;;;;;;;;;4977212;28;20069;-60
2023/07/15 01:20:57;;;;;;;3.13;2.05;;;;;;;;;;4975707;28;20506;-61
2023/07/15 01:23:26;;;;;;;5.03;2.20;;;;;;;;;;4974200;28;20039;-60
2023/07/15 01:25:52;;;;;;;2.40;2.10;;;;;;;;;;4972589;28;20131;-60
2023/07/15 01:28:18;;;;;;;2.90;1.85;;;;;;;;;;4982793;28;20055;-61
2023/07/15 01:30:44;;;;;;;3.38;2.05;;;;;;;;;;4976466;28;20054;-61
2023/07/15 01:33:15;;;;;;;3.22;2.17;;;;;;;;;;4977362;28;20046;-61
2023/07/15 01:35:47;;;;;;;2.80;1.80;;;;;;;;;;4975409;28;20057;-62
2023/07/15 01:38:14;;;;;;;2.55;1.88;;;;;;;;;;4978221;28;20509;-62
2023/07/15 01:40:40;;;;;;;2.63;1.90;;;;;;;;;;4973816;28;20518;-63
2023/07/15 01:43:06;;;;;;;4.68;2.10;;;;;;;;;;4973659;28;20066;-62
2023/07/15 01:45:32;;;;;;;3.28;1.60;;;;;;;;;;4975411;28;20051;-62
2023/07/15 01:47:58;;;;;;;4.68;1.80;;;;;;;;;;4973163;28;20038;-62
2023/07/15 01:50:24;;;;;;;2.40;1.88;;;;;;;;;;4973381;28;20409;-61
2023/07/15 01:52:51;;;;;;;2.88;1.70;;;;;;;;;;4970951;28;20038;-62
2023/07/15 01:55:17;;;;;;;2.83;1.85;;;;;;;;;;4971976;28;20508;-62
2023/07/15 01:57:43;;;;;;;1.83;1.73;;;;;;;;;;4973184;28;20053;-62
2023/07/15 02:00:10;;;;;;;2.10;1.70;;;;;;;;;;4976253;28;20042;-62
2023/07/15 02:02:39;;;;;;;3.08;2.13;;;;;;;;;;4979685;28;20053;-62
2023/07/15 02:05:06;;;;;;;3.55;1.60;;;;;;;;;;4976866;28;20054;-62
2023/07/15 02:07:32;;;;;;;3.10;2.10;;;;;;;;;;4973612;28;20050;-61
2023/07/15 02:09:59;;;;;;;2.00;1.60;;;;;;;;;;4975975;28;20034;-60
2023/07/15 02:12:26;;;;;;;3.15;1.60;;;;;;;;;;4970586;28;20033;-61
2023/07/15 02:14:52;;;;;;;4.35;1.92;;;;;;;;;;4973448;28;20034;-63
2023/07/15 02:17:22;;;;;;;3.80;1.90;;;;;;;;;;4974598;28;20033;-61
2023/07/15 02:19:49;;;;;;;1.63;1.52;;;;;;;;;;4969401;28;20045;-60
2023/07/15 02:22:15;;;;;;;2.08;1.88;;;;;;;;;;4973575;28;20034;-60
2023/07/15 02:24:41;;;;;;;3.33;1.80;;;;;;;;;;4974612;28;20413;-61
2023/07/15 02:27:07;;;;;;;2.28;1.50;;;;;;;;;;4973635;28;20045;-61
2023/07/15 02:29:34;;;;;;;2.63;1.80;;;;;;;;;;4974445;28;20058;-61
2023/07/15 02:32:02;;;;;;;2.30;1.65;;;;;;;;;;4988117;28;20222;-62
2023/07/15 02:34:29;;;;;;;2.70;1.87;;;;;;;;;;4973005;28;20054;-60
2023/07/15 02:36:55;;;;;;;2.95;1.83;;;;;;;;;;4973251;28;20043;-60
2023/07/15 02:39:21;;;;;;;2.05;1.67;;;;;;;;;;4962488;28;20050;-60
2023/07/15 02:41:47;;;;;;;3.63;2.22;;;;;;;;;;4972054;28;20537;-60
2023/07/15 02:44:15;;;;;;;2.42;1.90;;;;;;;;;;4970560;28;20030;-60
2023/07/15 02:46:41;;;;;;;3.70;2.10;;;;;;;;;;4971486;28;20677;-59
2023/07/15 02:49:08;;;;;;;2.45;1.90;;;;;;;;;;4970905;28;20047;-61
2023/07/15 02:51:36;;;;;;;4.13;2.08;;;;;;;;;;4972184;28;20045;-60
2023/07/15 02:54:02;;;;;;;4.50;2.00;;;;;;;;;;4972776;28;20054;-61
2023/07/15 02:56:29;;;;;;;3.15;2.15;;;;;;;;;;4976793;28;20061;-60
2023/07/15 02:58:55;;;;;;;2.55;2.05;;;;;;;;;;4972109;28;20057;-60
2023/07/15 03:01:21;;;;;;;2.17;1.98;;;;;;;;;;4975505;28;20030;-60
2023/07/15 03:03:47;;;;;;;3.58;2.15;;;;;;;;;;4968940;28;20438;-60
2023/07/15 03:06:13;;;;;;;2.17;1.90;;;;;;;;;;4977972;28;20046;-60
2023/07/15 03:08:39;;;;;;;2.85;2.30;;;;;;;;;;4975294;28;20057;-60
2023/07/15 03:11:08;;;;;;;4.60;2.17;;;;;;;;;;4971096;28;20035;-61
2023/07/15 03:13:34;;;;;;;2.97;2.28;;;;;;;;;;4974901;28;20199;-60
2023/07/15 03:16:01;;;;;;;2.35;2.10;;;;;;;;;;4973380;28;20057;-60
2023/07/15 03:18:28;;;;;;;3.15;2.35;;;;;;;;;;4973844;28;20034;-60
2023/07/15 03:20:56;;;;;;;4.47;2.45;;;;;;;;;;4973474;28;20031;-60
2023/07/15 03:23:22;;;;;;;2.80;2.38;;;;;;;;;;4972161;28;20790;-60
2023/07/15 03:25:49;;;;;;;3.58;2.10;;;;;;;;;;4975491;28;20058;-60
2023/07/15 03:28:15;;;;;;;2.83;2.10;;;;;;;;;;4973766;28;20038;-60
2023/07/15 03:30:43;;;;;;;2.43;2.10;;;;;;;;;;4972590;28;20035;-59
2023/07/15 03:33:10;;;;;;;3.50;2.50;;;;;;;;;;4969406;28;20410;-60
2023/07/15 03:35:36;;;;;;;8.20;2.70;;;;;;;;;;4971054;28;20107;-60
2023/07/15 03:38:02;;;;;;;4.28;2.47;;;;;;;;;;4972530;28;20042;-61
2023/07/15 03:40:33;;;;;;;2.65;1.92;;;;;;;;;;4971872;28;20031;-60
2023/07/15 03:42:59;;;;;;;2.63;2.40;;;;;;;;;;4970541;28;20038;-60
2023/07/15 03:45:25;;;;;;;3.22;2.30;;;;;;;;;;4973572;28;20406;-60
2023/07/15 03:47:51;;;;;;;2.90;2.05;;;;;;;;;;4971621;28;20062;-60
2023/07/15 03:50:18;;;;;;;3.17;2.47;;;;;;;;;;4973984;28;20049;-60
2023/07/15 03:52:44;;;;;;;2.78;2.50;;;;;;;;;;4970139;28;20027;-60
2023/07/15 03:55:10;;;;;;;3.50;2.38;;;;;;;;;;4973852;28;20043;-60
2023/07/15 03:57:36;;;;;;;3.35;2.70;;;;;;;;;;4975160;28;20047;-60
2023/07/15 04:00:06;;;;;;;4.35;2.35;;;;;;;;;;4971687;28;20066;-60
2023/07/15 04:02:39;;;;;;;3.33;2.20;;;;;;;;;;4970543;28;20038;-60
2023/07/15 04:05:05;;;;;;;5.03;2.45;;;;;;;;;;4973120;28;20417;-60
2023/07/15 04:07:31;;;;;;;4.18;2.83;;;;;;;;;;4977892;28;20041;-60
2023/07/15 04:09:57;;;;;;;3.35;2.70;;;;;;;;;;4980444;28;20426;-59
2023/07/15 04:12:23;;;;;;;4.15;2.70;;;;;;;;;;4976585;28;20054;-60
2023/07/15 04:14:49;;;;;;;5.05;2.72;;;;;;;;;;4979452;28;20031;-62
2023/07/15 04:17:16;;;;;;;3.30;2.55;;;;;;;;;;4975314;28;20670;-61
2023/07/15 04:19:42;;;;;;;4.30;2.80;;;;;;;;;;4975631;28;20045;-60
2023/07/15 04:22:08;;;;;;;4.15;2.40;;;;;;;;;;4972035;28;20054;-60
2023/07/15 04:24:34;;;;;;;4.43;2.70;;;;;;;;;;4977612;28;20494;-60
2023/07/15 04:27:02;;;;;;;4.85;2.78;;;;;;;;;;4980103;28;20050;-60
2023/07/15 04:29:30;;;;;;;3.75;2.75;;;;;;;;;;4976283;28;20049;-59
2023/07/15 04:31:57;;;;;;;3.60;2.85;;;;;;;;;;4975266;28;20417;-60
2023/07/15 04:34:23;;;;;;;3.08;2.67;;;;;;;;;;4981515;28;20442;-60
2023/07/15 04:36:49;;;;;;;3.90;3.00;;;;;;;;;;4976767;28;20046;-60
2023/07/15 04:39:15;;;;;;;4.22;2.72;;;;;;;;;;4982037;28;20387;-60
2023/07/15 04:41:41;;;;;;;3.20;2.72;;;;;;;;;;4974420;28;20038;-60
2023/07/15 04:44:08;;;;;;;3.38;2.90;;;;;;;;;;4973616;28;20528;-60
2023/07/15 04:46:34;;;;;;;7.30;2.85;;;;;;;;;;4971383;28;20035;-60
2023/07/15 04:49:00;;;;;;;4.18;2.92;;;;;;;;;;4973340;28;20533;-60
2023/07/15 04:51:26;;;;;;;3.67;2.75;;;;;;;;;;4976942;28;20054;-60
2023/07/15 04:53:52;;;;;;;4.05;3.05;;;;;;;;;;4975993;28;20030;-61
2023/07/15 04:56:18;;;;;;;3.78;2.95;;;;;;;;;;4976076;28;20057;-62
2023/07/15 04:58:45;;;;;;;5.90;3.00;;;;;;;;;;4975646;28;20027;-60
2023/07/15 05:01:11;;;;;;;3.90;2.92;;;;;;;;;;4978799;28;20031;-60
2023/07/15 05:03:37;;;;;;;3.72;2.90;;;;;;;;;;4975301;28;20078;-61
2023/07/15 05:06:03;;;;;;;3.83;2.88;;;;;;;;;;4977952;28;20058;-60
2023/07/15 05:08:29;;;;;;;4.10;2.90;;;;;;;;;;4982737;28;20039;-60
2023/07/15 05:10:55;;;;;;;4.18;2.80;;;;;;;;;;4974231;28;20034;-60
2023/07/15 05:13:21;;;;;;;3.90;2.80;;;;;;;;;;4975092;28;20139;-59
2023/07/15 05:15:47;;;;;;;3.03;2.72;;;;;;;;;;4978720;28;20061;-60
2023/07/15 05:18:15;;;;;;;4.80;2.90;;;;;;;;;;4975076;28;20406;-60
2023/07/15 05:20:41;;;;;;;6.78;3.28;;;;;;;;;;4973907;28;20049;-59
2023/07/15 05:23:07;;;;;;;4.05;3.03;;;;;;;;;;4974691;28;20134;-60
2023/07/15 05:25:34;;;;;;;3.60;2.78;;;;;;;;;;4977182;28;20613;-61
2023/07/15 05:28:00;;;;;;;4.22;3.25;;;;;;;;;;4977208;28;20528;-59
2023/07/15 05:30:26;;;;;;;4.95;2.75;;;;;;;;;;4976192;28;20039;-59
2023/07/15 05:32:52;;;;;;;3.45;2.88;;;;;;;;;;4970120;28;20046;-60
2023/07/15 05:35:18;;;;;;;3.55;2.90;;;;;;;;;;4973693;28;20769;-58
2023/07/15 05:37:46;;;;;;;6.10;3.60;;;;;;;;;;4970103;28;20054;-59
2023/07/15 05:40:12;;;;;;;3.60;2.75;;;;;;;;;;4973732;28;20414;-61
2023/07/15 05:42:40;;;;;;;6.47;4.07;;;;;;;;;;4975377;28;20045;-59
2023/07/15 05:45:07;;;;;;;7.50;5.00;;;;;;;;;;4972663;28;20057;-60
2023/07/15 05:47:34;;;;;;;5.30;3.20;;;;;;;;;;4972385;28;20050;-59
2023/07/15 05:50:01;;;;;;;7.13;4.07;;;;;;;;;;4974480;28;20034;-60
2023/07/15 05:52:28;;;;;;;3.97;3.38;;;;;;;;;;4970000;28;20363;-59
2023/07/15 05:54:54;;;;;;;5.07;3.25;;;;;;;;;;4976754;28;20034;-58
2023/07/15 05:57:20;;;;;;;3.60;3.20;;;;;;;;;;4972951;28;20039;-59
2023/07/15 05:59:46;;;;;;;6.50;3.05;;;;;;;;;;4972446;28;20561;-60
2023/07/15 06:02:13;;;;;;;3.97;3.50;;;;;;;;;;4971640;28;20042;-59
2023/07/15 06:04:39;;;;;;;4.22;3.50;;;;;;;;;;4970683;28;20039;-60
2023/07/15 06:07:05;;;;;;;3.72;3.08;;;;;;;;;;4974722;28;20046;-61
2023/07/15 06:09:31;;;;;;;4.45;3.50;;;;;;;;;;4975016;28;20034;-60
2023/07/15 06:11:57;;;;;;;4.30;2.92;;;;;;;;;;4969578;28;20050;-63
2023/07/15 06:14:23;;;;;;;3.60;3.30;;;;;;;;;;4973954;28;20034;-61
2023/07/15 06:16:49;;;;;;;3.95;3.33;;;;;;;;;;4974056;28;20054;-61
2023/07/15 06:19:15;;;;;;;3.70;3.30;;;;;;;;;;4974483;28;20034;-60
2023/07/15 06:21:42;;;;;;;4.20;3.60;;;;;;;;;;4971414;28;20035;-60
2023/07/15 06:24:08;;;;;;;4.68;3.20;;;;;;;;;;4974309;28;20379;-60
2023/07/15 06:26:35;;;;;;;5.10;3.38;;;;;;;;;;4972893;28;20414;-63
2023/07/15 06:29:01;;;;;;;4.97;3.20;;;;;;;;;;4971607;28;20038;-60
2023/07/15 06:31:28;;;;;;;5.28;3.60;;;;;;;;;;4975925;28;20050;-60
2023/07/15 06:33:54;;;;;;;5.05;3.25;;;;;;;;;;4973977;28;20026;-59
2023/07/15 06:36:20;;;;;;;5.47;3.38;;;;;;;;;;4977124;28;20045;-59
2023/07/15 06:38:47;;;;;;;4.35;3.53;;;;;;;;;;4977957;28;20061;-59
2023/07/15 06:41:13;;;;;;;5.20;3.30;;;;;;;;;;4976450;28;20051;-59
2023/07/15 06:43:39;;;;;;;3.95;3.40;;;;;;;;;;4975146;28;20045;-59
2023/07/15 06:46:06;;;;;;;3.65;3.13;;;;;;;;;;4972570;28;20038;-59
2023/07/15 06:48:32;;;;;;;6.72;3.80;;;;;;;;;;4973511;28;20046;-58
2023/07/15 06:50:58;;;;;;;5.88;3.72;;;;;;;;;;4972610;28;20517;-59
2023/07/15 06:53:24;;;;;;;5.15;4.07;;;;;;;;;;4973084;28;20058;-59
2023/07/15 06:55:52;;;;;;;4.13;3.08;;;;;;;;;;4973168;28;20389;-59
2023/07/15 06:58:18;;;;;;;4.38;3.42;;;;;;;;;;4973921;28;20031;-59
2023/07/15 07:00:44;;;;;;;6.53;3.60;;;;;;;;;;4972922;28;20035;-60
2023/07/15 07:03:10;;;;;;;4.20;3.25;;;;;;;;;;4971150;28;20031;-59
2023/07/15 07:05:36;;;;;;;4.50;3.60;;;;;;;;;;4970317;28;20046;-59
2023/07/15 07:08:02;;;;;;;4.97;3.97;;;;;;;;;;4976721;28;20047;-59
2023/07/15 07:10:29;;;;;;;4.32;3.92;;;;;;;;;;4974671;28;20053;-59
2023/07/15 07:12:55;;;;;;;6.03;3.90;;;;;;;;;;4969874;28;20422;-59
2023/07/15 07:15:21;;;;;;;4.80;3.42;;;;;;;;;;4975648;28;20037;-60
2023/07/15 07:17:47;;;;;;;5.50;3.88;;;;;;;;;;4973337;28;20413;-59
2023/07/15 07:20:13;;;;;;;6.80;3.67;;;;;;;;;;4975462;28;20412;-59
2023/07/15 07:22:39;;;;;;;4.85;3.65;;;;;;;;;;4972527;28;20105;-58
2023/07/15 07:25:06;;;;;;;5.22;3.80;;;;;;;;;;4973150;28;20039;-59
2023/07/15 07:27:32;;;;;;;5.68;3.70;;;;;;;;;;4972756;28;20054;-59
2023/07/15 07:29:59;;;;;;;5.30;3.60;;;;;;;;;;4976826;28;20030;-58
2023/07/15 07:32:26;;;;;;;6.00;3.90;;;;;;;;;;4972302;28;20035;-58
2023/07/15 07:34:53;;;;;;;6.43;4.70;;;;;;;;;;4968548;28;20057;-59
2023/07/15 07:37:20;;;;;;;5.78;4.03;;;;;;;;;;4972374;28;20053;-59
2023/07/15 07:39:46;;;;;;;6.40;3.70;;;;;;;;;;4978970;28;20035;-59
2023/07/15 07:42:13;;;;;;;5.03;3.78;;;;;;;;;;4977037;28;20046;-59
2023/07/15 07:44:39;;;;;;;6.43;4.35;;;;;;;;;;4978547;28;20031;-59
2023/07/15 07:47:05;;;;;;;8.25;4.25;;;;;;;;;;4973531;28;20046;-59
2023/07/15 07:49:31;;;;;;;6.07;3.75;;;;;;;;;;4970272;28;20039;-59
2023/07/15 07:51:57;;;;;;;4.38;3.63;;;;;;;;;;4973386;28;20047;-60
2023/07/15 07:54:23;;;;;;;5.80;3.53;;;;;;;;;;4982528;28;20046;-59
2023/07/15 07:56:49;;;;;;;3.90;3.38;;;;;;;;;;4976736;28;20057;-59
2023/07/15 07:59:16;;;;;;;5.32;3.38;;;;;;;;;;4977237;28;20043;-59
2023/07/15 08:01:42;;;;;;;4.57;3.47;;;;;;;;;;4977401;28;20034;-58
2023/07/15 08:04:08;;;;;;;7.53;3.92;;;;;;;;;;4974638;28;20058;-59
2023/07/15 08:06:34;;;;;;;5.78;3.45;;;;;;;;;;4975835;28;20046;-59
2023/07/15 08:09:00;;;;;;;5.07;3.92;;;;;;;;;;4978544;28;20046;-59
2023/07/15 08:11:26;;;;;;;4.93;3.63;;;;;;;;;;4978148;28;20042;-59
2023/07/15 08:13:53;;;;;;;5.97;3.80;;;;;;;;;;4974879;28;20641;-59
2023/07/15 08:16:36;;;;;;;6.05;3.58;;;;;;;;;;4976392;28;20502;-59
2023/07/15 08:19:04;;;;;;;4.38;3.72;;;;;;;;;;4976199;28;20566;-59
2023/07/15 08:21:30;;;;;;;7.60;3.65;;;;;;;;;;4975021;28;20038;-60
2023/07/15 08:23:56;;;;;;;4.65;3.70;;;;;;;;;;4973108;28;20042;-58
2023/07/15 08:26:23;;;;;;;6.57;3.90;;;;;;;;;;4977194;28;20398;-59
2023/07/15 08:28:50;;;;;;;5.00;3.33;;;;;;;;;;4976523;28;20058;-59
2023/07/15 08:31:16;;;;;;;4.03;3.63;;;;;;;;;;4969765;28;20525;-60
2023/07/15 08:33:43;;;;;;;5.07;3.60;;;;;;;;;;4973374;28;20050;-60
2023/07/15 08:36:09;;;;;;;4.95;3.63;;;;;;;;;;4975643;28;20027;-60
2023/07/15 08:38:35;;;;;;;5.53;3.45;;;;;;;;;;4971754;28;20035;-60
2023/07/15 08:41:02;;;;;;;6.20;4.28;;;;;;;;;;4974973;28;21677;-60
2023/07/15 08:43:32;;;;;;;4.60;3.60;;;;;;;;;;4972020;28;20062;-61
2023/07/15 08:46:29;;;;;;;5.65;3.60;;;;;;;;;;4980421;28;20031;-59
2023/07/15 08:48:56;;;;;;;5.28;3.50;;;;;;;;;;4970467;28;20053;-60
2023/07/15 08:51:26;;;;;;;5.28;3.60;;;;;;;;;;4973274;28;20413;-61
2023/07/15 08:53:53;;;;;;;4.97;4.18;;;;;;;;;;4971985;28;20038;-60
2023/07/15 08:56:21;;;;;;;8.00;3.97;;;;;;;;;;4974516;28;20046;-60
2023/07/15 08:58:47;;;;;;;4.87;3.93;;;;;;;;;;4973164;28;20041;-60
2023/07/15 09:01:14;;;;;;;5.32;3.92;;;;;;;;;;4974175;28;20051;-64
2023/07/15 09:03:40;;;;;;;6.15;4.45;;;;;;;;;;4974963;28;20043;-59
2023/07/15 09:06:07;;;;;;;10.35;3.70;;;;;;;;;;4975557;28;20103;-62
2023/07/15 09:08:33;;;;;;;5.05;3.17;;;;;;;;;;4978499;28;20521;-59
2023/07/15 09:10:59;;;;;;;9.98;3.40;;;;;;;;;;4976423;28;20038;-59
2023/07/15 09:13:28;;;;;;;5.57;3.60;;;;;;;;;;4975211;28;20062;-58
2023/07/15 09:15:55;;;;;;;3.63;3.17;;;;;;;;;;4975858;28;20043;-60
2023/07/15 09:18:22;;;;;;;3.88;3.40;;;;;;;;;;4980637;28;20065;-60
2023/07/15 09:20:50;;;;;;;4.32;3.78;;;;;;;;;;4992208;28;20046;-61
2023/07/15 09:23:16;;;;;;;4.88;3.50;;;;;;;;;;4974955;28;20042;-61
2023/07/15 09:26:04;;;;;;;4.55;3.60;;;;;;;;;;4975562;28;20057;-59
2023/07/15 09:28:30;;;;;;;5.40;3.50;;;;;;;;;;4978259;28;20047;-61
2023/07/15 09:30:57;;;;;;;4.63;3.47;;;;;;;;;;4977323;28;20286;-60
2023/07/15 09:33:35;;;;;;;6.90;4.10;;;;;;;;;;4961735;28;20034;-60
2023/07/15 09:36:02;;;;;;;;;;;;;;;;;;4973354;28;20637;-61
2023/07/15 09:38:34;;;;;;;4.60;3.60;;;;;;;;;;4981406;28;19921;-60
2023/07/15 09:41:01;;;;;;;6.50;3.50;;;;;;;;;;4977071;28;20034;-60
2023/07/15 09:43:46;;;;;;;4.80;3.25;;;;;;;;;;4971276;28;20038;-59
2023/07/15 09:46:15;;;;;;;4.20;3.10;;;;;;;;;;4971168;28;20039;-60
2023/07/15 09:48:46;;;;;;;3.90;3.50;;;;;;;;;;4974212;28;20026;-61
2023/07/15 09:51:14;;;;;;;7.43;3.65;;;;;;;;;;4988314;28;20043;-61
2023/07/15 09:53:51;;;;;;;7.38;3.83;;;;;;;;;;4973078;28;20038;-61
2023/07/15 09:56:23;;;;;;;7.93;3.60;;;;;;;;;;4974829;28;20038;-60
2023/07/15 09:58:52;;;;;;;4.80;3.50;;;;;;;;;;4979268;28;20046;-62
2023/07/15 10:01:47;;;;;;;6.03;3.58;;;;;;;;;;4976246;28;20039;-61
2023/07/15 10:04:35;;;;;;;7.70;4.20;;;;;;;;;;4973200;28;20035;-61
2023/07/15 10:07:03;;;;;;;6.53;4.35;;;;;;;;;;4973415;28;20030;-59
2023/07/15 10:09:31;;;;;;;4.57;3.60;;;;;;;;;;4974167;28;20710;-60
2023/07/15 10:11:58;;;;;;;4.85;3.80;;;;;;;;;;4971596;28;20034;-60
2023/07/15 10:14:27;;;;;;;5.25;3.67;;;;;;;;;;4980470;28;20057;-60
2023/07/15 10:17:36;;;;;;;6.35;4.03;;;;;;;;;;4972582;28;20043;-61
2023/07/15 10:20:17;;;;;;;5.10;3.97;;;;;;;;;;4926039;28;20043;-61
2023/07/15 10:22:44;;;;;;;5.80;3.95;;;;;;;;;;4974045;28;20461;-61
2023/07/15 10:25:12;;;;;;;6.85;4.20;;;;;;;;;;4974679;28;20035;-61
2023/07/15 10:27:38;;;;;;;;;;;;;;;;;;4971925;28;20046;-61
2023/07/15 10:30:16;;;;;;;6.68;3.85;;;;;;;;;;4974272;28;19914;-61
2023/07/15 10:33:08;;;;;;;8.43;4.43;;;;;;;;;;4967378;28;20039;-62
2023/07/15 10:35:34;;;;;;;5.22;4.18;;;;;;;;;;4970365;28;20042;-62
2023/07/15 10:38:02;;;;;;;5.35;4.07;;;;;;;;;;4972180;28;20047;-60
2023/07/15 10:40:46;;;;;;;6.88;3.88;;;;;;;;;;4973522;28;20410;-60
2023/07/15 10:43:20;;;;;;;5.22;4.00;;;;;;;;;;4973179;28;20042;-60
2023/07/15 10:45:53;;;;;;;6.13;3.58;;;;;;;;;;4969548;28;20050;-61
2023/07/15 10:48:21;;;;;;;6.18;3.92;;;;;;;;;;4978203;28;20030;-62
2023/07/15 10:50:55;;;;;;;5.55;4.05;;;;;;;;;;4972975;28;20057;-61
2023/07/15 10:53:29;;;;;;;4.78;3.60;;;;;;;;;;4972142;28;20546;-61
2023/07/15 10:56:05;;;;;;;4.95;3.75;;;;;;;;;;4971953;28;20042;-62
2023/07/15 10:58:35;;;;;;;7.60;3.90;;;;;;;;;;4973357;28;20038;-61
2023/07/15 11:01:09;;;;;;;5.43;4.00;;;;;;;;;;4971584;28;20057;-61
2023/07/15 11:03:37;;;;;;;6.20;3.88;;;;;;;;;;4971966;28;20035;-62
2023/07/15 11:06:04;;;;;;;6.85;3.75;;;;;;;;;;4972119;28;20043;-60
2023/07/15 11:08:32;;;;;;;4.80;3.83;;;;;;;;;;4973788;28;20049;-61
2023/07/15 11:11:06;;;;;;;4.27;3.77;;;;;;;;;;4971813;28;20037;-62
2023/07/15 11:13:36;;;;;;;5.40;3.90;;;;;;;;;;4967518;28;20316;-60
2023/07/15 11:16:02;;;;;;;5.45;3.47;;;;;;;;;;4977454;28;20046;-60
2023/07/15 11:18:28;;;;;;;6.53;4.00;;;;;;;;;;4976410;28;20038;-61
2023/07/15 11:20:56;;;;;;;7.25;3.97;;;;;;;;;;4972784;28;20051;-64
2023/07/15 11:23:23;;;;;;;5.13;3.67;;;;;;;;;;4973152;28;20494;-60
2023/07/15 11:25:50;;;;;;;6.47;3.30;;;;;;;;;;4972266;28;20061;-60
2023/07/15 11:28:19;;;;;;;5.13;3.80;;;;;;;;;;4972627;28;20039;-60
2023/07/15 11:30:48;;;;;;;5.97;3.85;;;;;;;;;;4972504;28;20044;-60
2023/07/15 11:33:15;;;;;;;7.57;4.22;;;;;;;;;;4971246;28;21605;-61
2023/07/15 11:35:43;;;;;;;6.80;4.00;;;;;;;;;;4971527;28;20049;-61
2023/07/15 11:38:14;;;;;;;7.38;4.07;;;;;;;;;;4977934;28;20039;-62
2023/07/15 11:40:55;;;;;;;6.35;4.70;;;;;;;;;;4972461;28;20038;-61
2023/07/15 11:43:23;;;;;;;5.78;4.30;;;;;;;;;;4970939;28;20031;-62
2023/07/15 11:45:54;;;;;;;6.88;4.28;;;;;;;;;;4972657;28;20035;-61
2023/07/15 11:48:28;;;;;;;6.53;4.18;;;;;;;;;;4974506;28;20031;-61
2023/07/15 11:51:12;;;;;;;5.03;4.07;;;;;;;;;;4975376;28;20514;-65
2023/07/15 11:53:41;;;;;;;5.13;4.13;;;;;;;;;;4970788;28;20530;-62
2023/07/15 11:56:07;;;;;;;6.63;4.60;;;;;;;;;;4973273;28;20039;-63
2023/07/15 11:58:38;;;;;;;5.97;4.50;;;;;;;;;;4976842;28;20049;-64
2023/07/15 12:01:14;;;;;;;4.68;3.88;;;;;;;;;;4973507;28;20061;-63
2023/07/15 12:03:41;;;;;;;5.68;4.28;;;;;;;;;;4960957;28;20661;-63
2023/07/15 12:06:18;;;;;;;4.97;4.18;;;;;;;;;;4971128;28;20042;-63
2023/07/15 12:09:10;;;;;;;4.97;4.20;;;;;;;;;;4973563;28;20034;-63
2023/07/15 12:11:37;;;;;;;5.28;4.38;;;;;;;;;;4969323;28;20047;-62
2023/07/15 12:14:05;;;;;;;5.68;3.90;;;;;;;;;;4974826;28;20033;-61
2023/07/15 12:16:33;;;;;;;5.30;4.68;;;;;;;;;;4970804;28;20035;-66
2023/07/15 12:19:00;;;;;;;6.75;4.78;;;;;;;;;;4973037;28;20525;-62
2023/07/15 12:21:27;;;;;;;5.45;4.38;;;;;;;;;;4973843;28;20837;-62
2023/07/15 12:23:55;;;;;;;5.30;4.80;;;;;;;;;;4970413;28;20027;-63
2023/07/15 12:26:22;;;;;;;6.35;4.60;;;;;;;;;;4976247;28;20508;-62
2023/07/15 12:28:49;;;;;;;7.43;4.80;;;;;;;;;;4975239;28;20027;-62
2023/07/15 12:31:16;;;;;;;6.93;5.40;;;;;;;;;;4974990;28;20038;-63
2023/07/15 12:33:43;;;;;;;5.65;5.03;;;;;;;;;;4974938;28;20027;-62
2023/07/15 12:36:11;;;;;;;9.38;5.50;;;;;;;;;;4978284;28;20042;-62
2023/07/15 12:38:38;;;;;;;8.20;5.30;;;;;;;;;;4974621;28;20054;-62
2023/07/15 12:41:07;;;;;;;6.80;5.65;;;;;;;;;;4977409;28;20038;-62
2023/07/15 12:43:34;;;;;;;9.13;5.53;;;;;;;;;;4981066;28;20034;-61
2023/07/15 12:46:01;;;;;;;6.55;5.00;;;;;;;;;;4974541;28;20051;-62
2023/07/15 12:48:27;;;;;;;7.70;4.85;;;;;;;;;;4975614;28;20039;-62
2023/07/15 12:50:54;;;;;;;9.43;5.28;;;;;;;;;;4985743;28;20034;-63
2023/07/15 12:53:21;;;;;;;6.68;5.20;;;;;;;;;;4974518;28;20034;-62
2023/07/15 12:55:48;;;;;;;6.78;4.93;;;;;;;;;;4978822;28;20046;-62
2023/07/15 12:58:14;;;;;;;8.23;4.88;;;;;;;;;;4975220;28;20104;-62
2023/07/15 13:00:41;;;;;;;8.40;4.32;;;;;;;;;;4973485;28;20038;-64
2023/07/15 13:03:07;;;;;;;10.00;5.30;;;;;;;;;;4973343;28;20026;-62
2023/07/15 13:05:33;;;;;;;6.95;5.13;;;;;;;;;;4973319;28;20536;-62
2023/07/15 13:08:00;;;;;;;7.20;4.57;;;;;;;;;;4975124;28;20058;-65
2023/07/15 13:10:26;;;;;;;6.35;4.75;;;;;;;;;;4971873;28;20062;-63
2023/07/15 13:12:52;;;;;;;7.25;4.65;;;;;;;;;;4972029;28;20055;-64
2023/07/15 13:15:18;;;;;;;6.63;5.13;;;;;;;;;;4972394;28;20034;-62
2023/07/15 13:17:44;;;;;;;7.47;4.90;;;;;;;;;;4976637;28;20502;-63
2023/07/15 13:20:12;;;;;;;5.38;4.70;;;;;;;;;;4979326;28;20034;-63
2023/07/15 13:22:39;;;;;;;7.38;4.78;;;;;;;;;;4972857;28;20057;-62
2023/07/15 13:25:06;;;;;;;6.50;4.93;;;;;;;;;;4976974;28;20062;-63
2023/07/15 13:27:34;;;;;;;8.90;4.90;;;;;;;;;;4973593;28;20038;-63
2023/07/15 13:30:01;;;;;;;7.95;5.05;;;;;;;;;;4979472;28;20135;-62
2023/07/15 13:32:27;;;;;;;5.90;4.55;;;;;;;;;;4969531;28;20050;-62
2023/07/15 13:34:53;;;;;;;6.63;4.65;;;;;;;;;;4974255;28;20038;-63
2023/07/15 13:37:20;;;;;;;8.23;4.25;;;;;;;;;;4976422;28;20034;-61
2023/07/15 13:39:46;;;;;;;7.97;5.05;;;;;;;;;;4974648;28;20049;-61
2023/07/15 13:42:18;;;;;;;7.05;4.38;;;;;;;;;;4977237;28;20046;-61
2023/07/15 13:44:45;;;;;;;5.90;4.15;;;;;;;;;;4975788;28;20046;-61
2023/07/15 13:47:11;;;;;;;6.28;4.68;;;;;;;;;;4977591;28;20035;-61
2023/07/15 13:49:37;;;;;;;6.93;4.65;;;;;;;;;;4975465;28;20059;-61
2023/07/15 13:52:05;;;;;;;6.40;4.60;;;;;;;;;;4972031;28;20038;-62
2023/07/15 13:54:32;;;;;;;6.80;4.60;;;;;;;;;;4973709;28;20050;-61
2023/07/15 13:56:58;;;;;;;7.10;4.75;;;;;;;;;;4974538;28;20049;-61
2023/07/15 13:59:27;;;;;;;9.43;4.50;;;;;;;;;;4972776;28;20548;-61
2023/07/15 14:01:53;;;;;;;7.35;4.70;;;;;;;;;;4975809;28;20034;-63
2023/07/15 14:04:19;;;;;;;7.85;4.30;;;;;;;;;;4974001;28;20051;-62
2023/07/15 14:06:46;;;;;;;6.60;4.38;;;;;;;;;;4972707;28;20055;-62
2023/07/15 14:09:16;;;;;;;6.25;4.38;;;;;;;;;;4976405;28;20483;-62
2023/07/15 14:11:44;;;;;;;4.68;4.00;;;;;;;;;;4971856;28;20406;-62
2023/07/15 14:14:17;;;;;;;8.23;4.60;;;;;;;;;;4974308;28;20042;-63
2023/07/15 14:16:43;;;;;;;11.00;4.57;;;;;;;;;;4972988;28;20557;-62
2023/07/15 14:19:09;;;;;;;8.27;4.20;;;;;;;;;;4976289;28;20045;-61
2023/07/15 14:21:35;;;;;;;6.30;4.18;;;;;;;;;;4978675;28;20039;-62
2023/07/15 14:24:04;;;;;;;6.47;4.25;;;;;;;;;;4974595;28;20038;-62
2023/07/15 14:26:31;;;;;;;7.65;4.85;;;;;;;;;;4972766;28;20043;-62
2023/07/15 14:28:57;;;;;;;7.75;4.47;;;;;;;;;;4974134;28;20038;-61
2023/07/15 14:31:23;;;;;;;8.85;4.78;;;;;;;;;;4974511;28;20042;-62
2023/07/15 14:33:53;;;;;;;6.68;4.43;;;;;;;;;;4977181;28;20031;-61
2023/07/15 14:36:23;;;;;;;11.27;4.90;;;;;;;;;;4972008;28;20034;-61
2023/07/15 14:38:51;;;;;;;7.00;4.57;;;;;;;;;;4973940;28;20058;-61
2023/07/15 14:41:17;;;;;;;5.30;4.55;;;;;;;;;;4974593;28;20033;-62
2023/07/15 14:43:44;;;;;;;6.18;4.68;;;;;;;;;;4973812;28;20046;-62
2023/07/15 14:46:10;;;;;;;7.65;4.80;;;;;;;;;;4966701;28;20042;-62
2023/07/15 14:48:38;;;;;;;6.45;5.07;;;;;;;;;;4972192;28;20043;-63